North Branch, Iowa
Current Conditions -  °F | °C
As of 11:55 PM on Friday 19 Dec 2014 (Local Time) from KADU Reporting Station
Haze Haze  
Wind Chill: 21°   Ceiling: 700
Heat Index: 28°   Visibility: 5mi
Dew Point: 23°   Wind: 7mph
Humidity: 80%   Direction: 170°S
Pressure: 30.17"   Gusts: NA
Location:  41.5232°N, 94.6432°W
Report Text: KADU 200555Z AUTO 17006KT 5SM HZ OVC007 M02/M05 A3017 RMK AO2
Loading
Personal Weather Stations






























Interactive Weather Map New forecast layout! Learn more

10-Day Weather Forecast

Advertisements
Track Severe Weather on mobile